Time;durP1;ratioP1;P1;durP2;ratioP2;P2;SDS_P1;SDS_P2;PMS_P1;PMS_P2;Temp;Humidity;BMP_temperature;BMP_pressure;BME280_temperature;BME280_humidity;BME280_pressure;Samples;Min_cycle;Max_cycle;Signal;HPM_P1;HPM_P2
2023/02/23 00:02:09;;;;;;;;;;;;;;;6.18;100.00;100458.88;5051968;28;20513;-68
2023/02/23 00:04:35;;;;;;;;;;;;;;;6.08;100.00;100463.53;5052747;28;20055;-70
2023/02/23 00:07:00;;;;;;;;;;;;;;;6.03;100.00;100462.38;5052109;28;19913;-70
2023/02/23 00:09:26;;;;;;;;;;;;;;;5.97;100.00;100473.13;5052206;28;19944;-68
2023/02/23 00:11:55;;;;;;;;;;;;;;;5.89;100.00;100476.06;5052404;28;20002;-69
2023/02/23 00:14:26;;;;;;;;;;;;;;;5.82;100.00;100473.16;5052324;28;20008;-70
2023/02/23 00:16:51;;;;;;;;;;;;;;;5.81;100.00;100475.66;5052249;28;19935;-70
2023/02/23 00:19:16;;;;;;;;;;;;;;;5.75;100.00;100470.19;5052495;28;20363;-68
2023/02/23 00:21:42;;;;;;;;;;;;;;;5.66;100.00;100479.09;5052110;28;19908;-68
2023/02/23 00:24:08;;;;;;;;;;;;;;;5.61;100.00;100483.06;5052232;28;19913;-67
2023/02/23 00:26:35;;;;;;;;;;;;;;;5.57;100.00;100481.16;5052190;28;20006;-70
2023/02/23 00:29:02;;;;;;;;;;;;;;;5.57;100.00;100482.81;5052174;28;20293;-71
2023/02/23 00:31:27;;;;;;;;;;;;;;;5.60;100.00;100481.31;5052179;28;19908;-68
2023/02/23 00:33:57;;;;;;;;;;;;;;;5.53;100.00;100492.00;5051625;28;19916;-67
2023/02/23 00:36:24;;;;;;;;;;;;;;;5.29;100.00;100492.34;5051409;28;19916;-66
2023/02/23 00:38:53;;;;;;;;;;;;;;;5.15;100.00;100488.97;5051490;28;20386;-66
2023/02/23 00:41:22;;;;;;;;;;;;;;;5.21;100.00;100490.13;5051833;28;19912;-66
2023/02/23 00:43:47;;;;;;;;;;;;;;;5.26;100.00;100484.50;5051864;28;20022;-68
2023/02/23 00:46:15;;;;;;;;;;;;;;;5.22;100.00;100481.66;5051787;28;19909;-67
2023/02/23 00:48:40;;;;;;;;;;;;;;;5.10;100.00;100482.69;5051814;28;19982;-67
2023/02/23 00:51:06;;;;;;;;;;;;;;;5.18;100.00;100486.59;5051590;28;19959;-68
2023/02/23 00:53:31;;;;;;;;;;;;;;;5.16;100.00;100484.75;5051591;28;19924;-67
2023/02/23 00:55:57;;;;;;;;;;;;;;;5.02;100.00;100478.78;5051488;28;19913;-71
2023/02/23 00:58:23;;;;;;;;;;;;;;;5.00;100.00;100473.59;5051516;28;19943;-67
2023/02/23 01:00:49;;;;;;;;;;;;;;;5.01;100.00;100472.81;5051667;28;19913;-67
2023/02/23 01:03:14;;;;;;;;;;;;;;;5.07;100.00;100479.06;5051640;28;19948;-70
2023/02/23 01:05:39;;;;;;;;;;;;;;;5.04;100.00;100476.34;5050881;28;19920;-66
2023/02/23 01:08:08;;;;;;;;;;;;;;;5.06;100.00;100478.22;5051508;28;20290;-74
2023/02/23 01:10:35;;;;;;;;;;;;;;;5.06;100.00;100480.75;5051448;28;19916;-70
2023/02/23 01:13:01;;;;;;;;;;;;;;;5.06;100.00;100480.75;5051096;28;19912;-67
2023/02/23 01:15:26;;;;;;;;;;;;;;;5.12;100.00;100481.13;5051449;28;19971;-66
2023/02/23 01:17:52;;;;;;;;;;;;;;;5.16;100.00;100483.06;5051282;28;19913;-67
2023/02/23 01:20:18;;;;;;;;;;;;;;;5.24;100.00;100486.06;5051289;28;20011;-67
2023/02/23 01:22:48;;;;;;;;;;;;;;;5.21;100.00;100483.34;5051106;28;19916;-66
2023/02/23 01:25:13;;;;;;;;;;;;;;;5.28;100.00;100487.13;5051005;28;19916;-66
2023/02/23 01:27:40;;;;;;;;;;;;;;;5.28;100.00;100482.91;5051173;28;20011;-66
2023/02/23 01:30:05;;;;;;;;;;;;;;;5.34;100.00;100479.81;5050735;28;19963;-70
2023/02/23 01:32:33;;;;;;;;;;;;;;;5.33;100.00;100481.50;5050631;28;19913;-69
2023/02/23 01:34:58;;;;;;;;;;;;;;;5.48;100.00;100480.59;5051023;28;19917;-72
2023/02/23 01:37:23;;;;;;;;;;;;;;;5.44;100.00;100483.78;5050795;28;20296;-70
2023/02/23 01:39:49;;;;;;;;;;;;;;;5.52;100.00;100477.44;5051085;28;19967;-70
2023/02/23 01:42:14;;;;;;;;;;;;;;;5.59;100.00;100488.91;5051051;28;19917;-68
2023/02/23 01:44:40;;;;;;;;;;;;;;;5.56;100.00;100489.63;5050927;28;19913;-73
2023/02/23 01:47:07;;;;;;;;;;;;;;;5.58;100.00;100482.91;5050759;28;19987;-71
2023/02/23 01:49:33;;;;;;;;;;;;;;;5.68;100.00;100476.63;5050958;28;19916;-67
2023/02/23 01:52:04;;;;;;;;;;;;;;;5.75;100.00;100483.00;5051015;28;19919;-70
2023/02/23 01:54:31;;;;;;;;;;;;;;;5.80;100.00;100481.56;5051192;28;20405;-68
2023/02/23 01:56:58;;;;;;;;;;;;;;;5.90;100.00;100480.41;5050823;28;19912;-67
2023/02/23 01:59:27;;;;;;;;;;;;;;;5.85;100.00;100482.69;5050873;28;20418;-66
2023/02/23 02:01:53;;;;;;;;;;;;;;;5.88;100.00;100482.88;5050415;28;20430;-68
2023/02/23 02:04:19;;;;;;;;;;;;;;;5.90;100.00;100481.28;5051021;28;20003;-66
2023/02/23 02:06:47;;;;;;;;;;;;;;;5.66;100.00;100481.66;5015296;28;20438;-67
2023/02/23 02:09:16;;;;;;;;;;;;;;;5.60;100.00;100491.56;5050773;28;20352;-70
2023/02/23 02:11:43;;;;;;;;;;;;;;;5.60;100.00;100494.13;5050546;28;20331;-70
2023/02/23 02:14:13;;;;;;;;;;;;;;;5.62;100.00;100496.75;5050586;28;19935;-68
2023/02/23 02:16:41;;;;;;;;;;;;;;;5.70;100.00;100499.78;5050639;28;19956;-66
2023/02/23 02:19:09;;;;;;;;;;;;;;;5.85;100.00;100495.50;5050556;28;19940;-70
2023/02/23 02:21:34;;;;;;;;;;;;;;;5.77;100.00;100495.09;5050851;28;19955;-67
2023/02/23 02:24:25;;;;;;;;;;;;;;;5.73;100.00;100500.84;5051906;28;19951;-67
2023/02/23 02:27:09;;;;;;;;;;;;;;;5.62;100.00;100497.66;5054303;28;20000;-72
2023/02/23 02:29:47;;;;;;;;;;;;;;;5.67;100.00;100506.47;5054102;28;19920;-68
2023/02/23 02:32:18;;;;;;;;;;;;;;;5.67;100.00;100509.03;5054540;28;19919;-70
2023/02/23 02:34:49;;;;;;;;;;;;;;;5.65;100.00;100510.63;5054064;28;19924;-68
2023/02/23 02:37:26;;;;;;;;;;;;;;;5.77;100.00;100504.44;5053846;28;19940;-66
2023/02/23 02:40:13;;;;;;;;;;;;;;;5.72;100.00;100508.41;5054242;28;19919;-67
2023/02/23 02:42:45;;;;;;;;;;;;;;;5.62;100.00;100512.13;5054148;28;19913;-72
2023/02/23 02:45:10;;;;;;;;;;;;;;;5.69;100.00;100515.94;5054292;28;19909;-66
2023/02/23 02:47:39;;;;;;;;;;;;;;;5.78;100.00;100513.88;5054179;28;19908;-66
2023/02/23 02:50:09;;;;;;;;;;;;;;;5.72;100.00;100519.56;5053961;28;19912;-67
2023/02/23 02:52:39;;;;;;;;;;;;;;;5.66;100.00;100526.91;5053972;28;19919;-68
2023/02/23 02:55:11;;;;;;;;;;;;;;;5.64;100.00;100525.91;5054114;28;19936;-71
2023/02/23 02:57:36;;;;;;;;;;;;;;;5.48;100.00;100521.56;5053762;28;19913;-68
2023/02/23 04:18:27;;;;;;;;;;;;;;;5.35;100.00;100537.91;5052267;28;19954;-70
2023/02/23 04:20:53;;;;;;;;;;;;;;;5.47;100.00;100538.63;5036478;28;20008;-66
2023/02/23 04:23:21;;;;;;;;;;;;;;;5.50;100.00;100543.03;5032296;28;19956;-70
2023/02/23 04:25:46;;;;;;;;;;;;;;;5.49;100.00;100544.69;5037855;28;19924;-66
2023/02/23 04:28:12;;;;;;;;;;;;;;;5.47;100.00;100542.84;5051899;28;20347;-67
2023/02/23 04:30:37;;;;;;;;;;;;;;;5.51;100.00;100548.25;5052058;28;20339;-70
2023/02/23 04:33:02;;;;;;;;;;;;;;;5.53;100.00;100550.88;5052119;28;19999;-66
2023/02/23 04:35:30;;;;;;;;;;;;;;;5.57;100.00;100554.50;5052022;28;19924;-65
2023/02/23 04:37:55;;;;;;;;;;;;;;;5.67;100.00;100552.59;5047105;28;20019;-65
2023/02/23 04:40:21;;;;;;;;;;;;;;;5.80;100.00;100553.28;5042144;28;20011;-67
2023/02/23 04:42:46;;;;;;;;;;;;;;;5.86;100.00;100556.22;5043103;28;19912;-67
2023/02/23 04:45:11;;;;;;;;;;;;;;;5.91;100.00;100554.78;5051469;28;19931;-65
2023/02/23 04:47:37;;;;;;;;;;;;;;;6.00;100.00;100551.91;5050925;28;20015;-69
2023/02/23 04:50:02;;;;;;;;;;;;;;;5.95;100.00;100553.28;5051728;28;19909;-66
2023/02/23 04:52:28;;;;;;;;;;;;;;;6.05;100.00;100547.03;5051962;28;20294;-69
2023/02/23 04:54:53;;;;;;;;;;;;;;;6.14;100.00;100547.53;5051457;28;19924;-66
2023/02/23 04:57:18;;;;;;;;;;;;;;;6.23;100.00;100548.06;5051539;28;20281;-71
2023/02/23 04:59:43;;;;;;;;;;;;;;;6.27;100.00;100550.00;5051325;28;19912;-65
2023/02/23 05:02:09;;;;;;;;;;;;;;;6.26;100.00;100553.34;5051155;28;19913;-65
2023/02/23 05:04:34;;;;;;;;;;;;;;;6.31;100.00;100549.38;5051631;28;19992;-66
2023/02/23 05:07:00;;;;;;;;;;;;;;;6.26;100.00;100555.06;5051673;28;19913;-65
2023/02/23 05:09:25;;;;;;;;;;;;;;;6.30;100.00;100560.41;5051489;28;20007;-65
2023/02/23 05:11:51;;;;;;;;;;;;;;;6.35;100.00;100563.25;5051251;28;19923;-71
2023/02/23 05:14:16;;;;;;;;;;;;;;;6.45;100.00;100562.94;5033115;28;19916;-67
2023/02/23 05:16:41;;;;;;;;;;;;;;;6.48;100.00;100569.94;5051409;28;19924;-65
2023/02/23 05:19:07;;;;;;;;;;;;;;;6.51;100.00;100572.66;5051402;28;20284;-69
2023/02/23 05:21:32;;;;;;;;;;;;;;;6.62;100.00;100579.25;5051494;28;19912;-70
2023/02/23 05:23:57;;;;;;;;;;;;;;;6.65;100.00;100583.69;5051252;28;19919;-67
2023/02/23 05:26:23;;;;;;;;;;;;;;;6.58;100.00;100582.47;5051114;28;19913;-70
2023/02/23 05:28:48;;;;;;;;;;;;;;;6.57;100.00;100585.84;5051204;28;19999;-72
2023/02/23 05:31:14;;;;;;;;;;;;;;;6.58;100.00;100591.81;5051307;28;20002;-70
2023/02/23 05:33:42;;;;;;;;;;;;;;;6.57;100.00;100596.09;5050840;28;19924;-69
2023/02/23 05:36:12;;;;;;;;;;;;;;;6.50;100.00;100599.09;5050810;28;19928;-69
2023/02/23 05:38:38;;;;;;;;;;;;;;;6.45;100.00;100601.41;5047334;28;19917;-66
2023/02/23 05:41:07;;;;;;;;;;;;;;;6.39;100.00;100610.44;5031084;28;19916;-68
2023/02/23 05:43:32;;;;;;;;;;;;;;;6.38;100.00;100603.56;5031209;28;20402;-69
2023/02/23 05:46:00;;;;;;;;;;;;;;;6.48;100.00;100608.41;5030997;28;20010;-66
2023/02/23 05:48:25;;;;;;;;;;;;;;;6.46;100.00;100608.31;5031292;28;19909;-69
2023/02/23 05:50:50;;;;;;;;;;;;;;;6.55;100.00;100614.75;5013302;28;19924;-67
2023/02/23 05:53:16;;;;;;;;;;;;;;;6.54;100.00;100621.59;5030785;28;20369;-66
2023/02/23 05:55:41;;;;;;;;;;;;;;;6.49;100.00;100620.41;5030692;28;20346;-66
2023/02/23 05:58:06;;;;;;;;;;;;;;;6.46;100.00;100630.53;5036010;28;20004;-68
2023/02/23 06:00:32;;;;;;;;;;;;;;;6.43;100.00;100633.81;5054650;28;20015;-65
2023/02/23 06:02:57;;;;;;;;;;;;;;;6.47;100.00;100640.84;5036974;28;19912;-66
2023/02/23 06:05:22;;;;;;;;;;;;;;;6.38;100.00;100644.59;5054959;28;19956;-68
2023/02/23 06:07:48;;;;;;;;;;;;;;;6.33;100.00;100646.91;5054440;28;20298;-66
2023/02/23 06:10:13;;;;;;;;;;;;;;;6.22;100.00;100653.97;5047964;28;19917;-69
2023/02/23 06:12:38;;;;;;;;;;;;;;;6.23;100.00;100663.44;5043711;28;20029;-70
2023/02/23 06:15:04;;;;;;;;;;;;;;;6.24;100.00;100662.66;5044100;28;19917;-71
2023/02/23 06:17:29;;;;;;;;;;;;;;;6.19;100.00;100661.47;5044762;28;19936;-69
2023/02/23 06:19:55;;;;;;;;;;;;;;;6.17;100.00;100655.41;5032292;28;20367;-70
2023/02/23 06:22:20;;;;;;;;;;;;;;;6.17;100.00;100660.53;5044274;28;19916;-71
2023/02/23 06:24:45;;;;;;;;;;;;;;;6.26;100.00;100661.03;5043954;28;19917;-71
2023/02/23 06:27:11;;;;;;;;;;;;;;;6.44;100.00;100663.78;5043277;28;19920;-71
2023/02/23 06:29:37;;;;;;;;;;;;;;;6.40;100.00;100666.06;5045924;28;19924;-71
2023/02/23 06:32:02;;;;;;;;;;;;;;;6.40;100.00;100660.94;5053845;28;19924;-66
2023/02/23 06:34:28;;;;;;;;;;;;;;;6.45;100.00;100662.09;5053723;28;19917;-67
2023/02/23 06:36:53;;;;;;;;;;;;;;;6.55;100.00;100664.38;5054176;28;19939;-67
2023/02/23 06:39:18;;;;;;;;;;;;;;;6.57;100.00;100667.91;5054493;28;19954;-67
2023/02/23 06:41:43;;;;;;;;;;;;;;;6.59;100.00;100665.44;5054154;28;19905;-68
2023/02/23 06:44:09;;;;;;;;;;;;;;;6.53;100.00;100668.56;5053849;28;19920;-68
2023/02/23 06:46:35;;;;;;;;;;;;;;;6.46;100.00;100666.44;5053808;28;20054;-67
2023/02/23 06:49:00;;;;;;;;;;;;;;;6.40;100.00;100671.22;5053965;28;20421;-70
2023/02/23 06:51:26;;;;;;;;;;;;;;;6.44;100.00;100670.56;5018145;28;19905;-67
2023/02/23 06:53:52;;;;;;;;;;;;;;;6.29;100.00;100670.59;5053984;28;19919;-68
2023/02/23 06:56:17;;;;;;;;;;;;;;;6.19;100.00;100676.00;5053836;28;19913;-66
2023/02/23 06:58:42;;;;;;;;;;;;;;;6.13;100.00;100669.72;5053763;28;20314;-68
2023/02/23 07:01:08;;;;;;;;;;;;;;;6.23;100.00;100676.25;5053897;28;19962;-69
2023/02/23 07:03:34;;;;;;;;;;;;;;;6.31;100.00;100681.81;5053734;28;19913;-68
2023/02/23 07:06:01;;;;;;;;;;;;;;;6.39;100.00;100683.16;5053855;28;20015;-67
2023/02/23 07:08:28;;;;;;;;;;;;;;;6.49;100.00;100684.53;5053647;28;20499;-66
2023/02/23 07:10:53;;;;;;;;;;;;;;;6.54;100.00;100682.25;5052558;28;20011;-69
2023/02/23 07:13:19;;;;;;;;;;;;;;;6.68;100.00;100695.84;5053467;28;20003;-67
2023/02/23 07:15:44;;;;;;;;;;;;;;;6.71;100.00;100685.78;5053431;28;20416;-66
2023/02/23 07:18:10;;;;;;;;;;;;;;;6.78;100.00;100688.75;5053303;28;19917;-69
2023/02/23 07:20:37;;;;;;;;;;;;;;;6.83;100.00;100688.13;5053521;28;19913;-70
2023/02/23 07:23:02;;;;;;;;;;;;;;;6.77;100.00;100688.69;5035614;28;20280;-67
2023/02/23 07:25:51;;;;;;;;;;;;;;;6.79;100.00;100689.63;5030657;28;19920;-67
2023/02/23 07:28:17;;;;;;;;;;;;;;;6.73;100.00;100689.28;5030610;28;20011;-68
2023/02/23 07:30:43;;;;;;;;;;;;;;;6.71;100.00;100688.34;5030361;28;19913;-67
2023/02/23 07:33:08;;;;;;;;;;;;;;;6.79;100.00;100698.22;5014264;28;19917;-67
2023/02/23 07:35:33;;;;;;;;;;;;;;;6.70;100.00;100695.13;5030486;28;19917;-67
2023/02/23 07:37:59;;;;;;;;;;;;;;;6.80;100.00;100702.56;5030604;28;19921;-67
2023/02/23 07:40:24;;;;;;;;;;;;;;;6.90;100.00;100709.09;5030589;28;20664;-67
2023/02/23 07:42:50;;;;;;;;;;;;;;;6.97;100.00;100700.91;5025087;28;19925;-67
2023/02/23 07:45:16;;;;;;;;;;;;;;;7.00;100.00;100705.31;5011208;28;19955;-67
2023/02/23 07:47:41;;;;;;;;;;;;;;;7.05;100.00;100708.16;5016675;28;20015;-71
2023/02/23 07:50:08;;;;;;;;;;;;;;;7.13;100.00;100704.34;5010535;28;19913;-67
2023/02/23 07:52:34;;;;;;;;;;;;;;;7.09;100.00;100704.94;5010536;28;19913;-67
2023/02/23 07:55:00;;;;;;;;;;;;;;;7.05;100.00;100709.06;5010544;28;20005;-70
2023/02/23 07:57:25;;;;;;;;;;;;;;;7.04;100.00;100702.16;5023182;28;20555;-67
2023/02/23 07:59:51;;;;;;;;;;;;;;;7.07;100.00;100704.88;5032606;28;19924;-67
2023/02/23 08:02:16;;;;;;;;;;;;;;;7.05;100.00;100708.16;5032316;28;20598;-66
2023/02/23 08:04:42;;;;;;;;;;;;;;;6.94;100.00;100703.31;5032392;28;19920;-66
2023/02/23 08:07:07;;;;;;;;;;;;;;;6.97;100.00;100716.31;5031914;28;19924;-67
2023/02/23 08:09:34;;;;;;;;;;;;;;;6.99;100.00;100707.81;5032391;28;19917;-70
2023/02/23 08:11:59;;;;;;;;;;;;;;;7.04;100.00;100712.44;5032559;28;20000;-67
2023/02/23 08:14:25;;;;;;;;;;;;;;;7.05;100.00;100716.75;5032328;28;19913;-68
2023/02/23 08:16:50;;;;;;;;;;;;;;;6.95;100.00;100717.94;5031874;28;19920;-71
2023/02/23 08:19:15;;;;;;;;;;;;;;;6.85;100.00;100715.63;5032471;28;19913;-68
2023/02/23 08:21:42;;;;;;;;;;;;;;;6.88;100.00;100718.38;4995979;28;19913;-67
2023/02/23 08:24:08;;;;;;;;;;;;;;;6.89;100.00;100725.28;5032573;28;19909;-68
2023/02/23 08:26:34;;;;;;;;;;;;;;;6.96;100.00;100719.69;5032467;28;19943;-68
2023/02/23 08:28:59;;;;;;;;;;;;;;;7.05;100.00;100721.91;5031769;28;19920;-67
2023/02/23 08:31:26;;;;;;;;;;;;;;;7.08;100.00;100722.06;5031902;28;19909;-67
2023/02/23 08:33:52;;;;;;;;;;;;;;;7.10;100.00;100720.47;5033675;28;20395;-66
2023/02/23 08:36:19;;;;;;;;;;;;;;;7.07;100.00;100727.97;5051948;28;19924;-67
2023/02/23 08:38:44;;;;;;;;;;;;;;;7.11;100.00;100722.22;5051974;28;19912;-67
2023/02/23 08:41:10;;;;;;;;;;;;;;;7.15;100.00;100730.97;5051888;28;19919;-69
2023/02/23 08:43:43;;;;;;;;;;;;;;;7.17;100.00;100724.25;5107994;27;19935;-67
2023/02/23 08:46:08;;;;;;;;;;;;;;;7.25;100.00;100733.25;5108602;28;19989;-67
2023/02/23 08:48:34;;;;;;;;;;;;;;;7.34;100.00;100732.88;5108846;28;20363;-68
2023/02/23 08:50:59;;;;;;;;;;;;;;;7.37;100.00;100735.59;5108965;28;20332;-66
2023/02/23 08:53:26;;;;;;;;;;;;;;;7.38;100.00;100736.50;5108496;28;19916;-70
2023/02/23 08:55:58;;;;;;;;;;;;;;;7.43;100.00;100738.50;5109003;28;19965;-69
2023/02/23 08:58:23;;;;;;;;;;;;;;;7.49;100.00;100742.19;5108809;28;19922;-68
2023/02/23 09:00:49;;;;;;;;;;;;;;;7.50;100.00;100737.16;5108740;28;20360;-68
2023/02/23 09:03:14;;;;;;;;;;;;;;;7.50;100.00;100742.28;5108368;28;20465;-68
2023/02/23 09:05:39;;;;;;;;;;;;;;;7.58;100.00;100743.56;5108587;28;19920;-66
2023/02/23 09:08:05;;;;;;;;;;;;;;;7.58;100.00;100743.56;5108540;28;19920;-71
2023/02/23 09:10:32;;;;;;;;;;;;;;;7.62;100.00;100744.63;5108388;28;20019;-68
2023/02/23 09:12:57;;;;;;;;;;;;;;;7.66;100.00;100740.53;5107918;28;19916;-67
2023/02/23 09:15:23;;;;;;;;;;;;;;;7.76;100.00;100743.69;5108641;28;19977;-68
2023/02/23 09:17:48;;;;;;;;;;;;;;;7.80;100.00;100742.16;5108024;28;19985;-68
2023/02/23 09:20:14;;;;;;;;;;;;;;;7.80;100.00;100742.16;5108179;28;20358;-70
2023/02/23 09:22:47;;;;;;;;;;;;;;;7.84;100.00;100735.47;5108335;28;19924;-71
2023/02/23 09:25:13;;;;;;;;;;;;;;;7.86;100.00;100746.72;5107873;28;19923;-70
2023/02/23 09:27:38;;;;;;;;;;;;;;;7.93;100.00;100739.41;5107863;28;20287;-68
2023/02/23 09:30:04;;;;;;;;;;;;;;;7.99;100.00;100746.56;5108025;28;19973;-68
2023/02/23 09:32:29;;;;;;;;;;;;;;;7.94;100.00;100741.16;5107567;28;20305;-67
2023/02/23 09:34:54;;;;;;;;;;;;;;;7.93;100.00;100743.66;5107999;28;19916;-71
2023/02/23 09:37:20;;;;;;;;;;;;;;;7.97;100.00;100737.88;5108157;28;19916;-68
2023/02/23 09:39:47;;;;;;;;;;;;;;;7.97;100.00;100735.28;5108408;28;20286;-67
2023/02/23 09:42:12;;;;;;;;;;;;;;;8.02;100.00;100738.13;5107920;28;20294;-67
2023/02/23 09:44:47;;;;;;;;;;;;;;;8.03;100.00;100740.75;5107878;28;19923;-70
2023/02/23 09:47:18;;;;;;;;;;;;;;;8.17;100.00;100731.16;5107919;28;19933;-72
2023/02/23 09:49:45;;;;;;;;;;;;;;;8.26;100.00;100730.75;5107780;28;19972;-69
2023/02/23 09:52:31;;;;;;;;;;;;;;;8.23;100.00;100726.34;5107782;28;19916;-67
2023/02/23 09:54:57;;;;;;;;;;;;;;;8.23;100.00;100730.63;5066844;28;19917;-70
2023/02/23 09:57:26;;;;;;;;;;;;;;;8.26;100.00;100728.19;5052144;28;20303;-71
2023/02/23 09:59:52;;;;;;;;;;;;;;;8.27;100.00;100732.53;5050840;28;19924;-67
2023/02/23 10:02:22;;;;;;;;;;;;;;;8.46;100.00;100730.88;5051198;28;19916;-70
2023/02/23 10:04:55;;;;;;;;;;;;;;;8.53;100.00;100730.41;5050048;28;20062;-69
2023/02/23 10:07:39;;;;;;;;;;;;;;;8.56;100.00;100731.44;5050329;28;20405;-66
2023/02/23 10:10:14;;;;;;;;;;;;;;;8.47;100.00;100722.38;5050937;28;19917;-71
2023/02/23 10:12:45;;;;;;;;;;;;;;;8.48;100.00;100722.47;5050859;28;19920;-68
2023/02/23 10:15:17;;;;;;;;;;;;;;;8.57;100.00;100727.16;5051806;28;20463;-69
2023/02/23 10:17:45;;;;;;;;;;;;;;;8.51;100.00;100724.28;5049908;28;20315;-69
2023/02/23 10:20:23;;;;;;;;;;;;;;;8.50;100.00;100719.94;5052647;28;19924;-70
2023/02/23 10:22:48;;;;;;;;;;;;;;;8.44;100.00;100720.50;5050199;28;19944;-71
2023/02/23 10:25:21;;;;;;;;;;;;;;;8.45;100.00;100719.72;5050721;28;19968;-70
2023/02/23 10:27:48;;;;;;;;;;;;;;;8.56;100.00;100725.41;5050360;28;19920;-69
2023/02/23 10:30:19;;;;;;;;;;;;;;;8.68;100.00;100717.41;5049680;28;19952;-69
2023/02/23 10:32:51;;;;;;;;;;;;;;;8.74;100.00;100721.16;5063620;28;20378;-71
2023/02/23 10:35:18;;;;;;;;;;;;;;;8.67;100.00;100718.22;5073133;28;19956;-66
2023/02/23 10:37:44;;;;;;;;;;;;;;;8.68;100.00;100719.97;5070091;28;19921;-71
2023/02/23 10:40:16;;;;;;;;;;;;;;;8.74;100.00;100712.56;5072986;28;19917;-71
2023/02/23 10:42:42;;;;;;;;;;;;;;;8.75;100.00;100714.34;5070026;28;20023;-69
2023/02/23 10:45:17;;;;;;;;;;;;;;;8.71;100.00;100712.41;5070619;28;20019;-70
2023/02/23 10:47:43;;;;;;;;;;;;;;;8.67;100.00;100713.97;5072232;28;19917;-69
2023/02/23 10:50:09;;;;;;;;;;;;;;;8.65;100.00;100714.66;5072348;28;20026;-70
2023/02/23 10:52:44;;;;;;;;;;;;;;;8.70;100.00;100713.22;5072370;28;19963;-69
2023/02/23 10:55:25;;;;;;;;;;;;;;;8.80;100.00;100717.09;5071869;28;20371;-70
2023/02/23 10:58:00;;;;;;;;;;;;;;;8.87;100.00;100716.59;5071251;28;19917;-69
2023/02/23 11:00:31;;;;;;;;;;;;;;;8.94;100.00;100713.50;5072350;28;19973;-74
2023/02/23 11:02:57;;;;;;;;;;;;;;;9.02;100.00;100713.88;5070012;28;19924;-70
2023/02/23 11:05:41;;;;;;;;;;;;;;;9.13;100.00;100704.94;5070802;28;19920;-70
2023/02/23 11:08:10;;;;;;;;;;;;;;;9.02;100.00;100706.13;5066109;28;20354;-70
2023/02/23 11:10:37;;;;;;;;;;;;;;;8.97;100.00;100695.66;5070813;28;19928;-72
2023/02/23 11:13:03;;;;;;;;;;;;;;;9.05;100.00;100693.44;5071227;28;19978;-70
2023/02/23 11:15:33;;;;;;;;;;;;;;;9.13;100.00;100694.63;5071067;28;19920;-71
2023/02/23 11:18:02;;;;;;;;;;;;;;;9.18;100.00;100692.28;5071067;28;20406;-72
2023/02/23 11:20:34;;;;;;;;;;;;;;;9.08;100.00;100696.13;5067169;28;19979;-67
2023/02/23 11:23:01;;;;;;;;;;;;;;;9.11;100.00;100692.81;5069316;28;19916;-68
2023/02/23 11:25:28;;;;;;;;;;;;;;;9.09;100.00;100687.59;5068219;28;20023;-68
2023/02/23 11:27:55;;;;;;;;;;;;;;;9.26;100.00;100685.81;5071749;28;19927;-68
2023/02/23 11:30:24;;;;;;;;;;;;;;;9.34;100.00;100687.00;5069734;28;20007;-69
2023/02/23 11:32:53;;;;;;;;;;;;;;;9.42;100.00;100687.38;5071464;28;20053;-66
2023/02/23 11:35:18;;;;;;;;;;;;;;;9.45;100.00;100684.94;5071892;28;20571;-66
2023/02/23 11:37:44;;;;;;;;;;;;;;;9.52;100.00;100686.97;5071932;28;19920;-70
2023/02/23 11:40:21;;;;;;;;;;;;;;;9.47;100.00;100688.47;5071841;28;20279;-70
2023/02/23 11:42:52;;;;;;;;;;;;;;;9.49;100.00;100680.81;5071752;28;20318;-66
2023/02/23 11:45:19;;;;;;;;;;;;;;;9.47;100.00;100682.41;5068104;28;19920;-67
2023/02/23 11:47:46;;;;;;;;;;;;;;;9.62;100.00;100689.94;5057609;28;19928;-71
2023/02/23 11:50:21;;;;;;;;;;;;;;;9.58;100.00;100688.06;5069800;28;20321;-68
2023/02/23 11:52:54;;;;;;;;;;;;;;;9.74;100.00;100687.91;5071220;28;20339;-72
2023/02/23 11:55:19;;;;;;;;;;;;;;;9.80;100.00;100685.59;5071081;28;19917;-72
2023/02/23 11:57:48;;;;;;;;;;;;;;;9.79;100.00;100690.69;5070293;28;20003;-71
2023/02/23 12:00:21;;;;;;;;;;;;;;;9.50;100.00;100688.59;5070953;28;19916;-69
2023/02/23 12:02:49;;;;;;;;;;;;;;;9.59;100.00;100679.53;5070581;28;20380;-70
2023/02/23 12:05:23;;;;;;;;;;;;;;;9.74;100.00;100689.63;5056746;28;19921;-70
2023/02/23 12:07:57;;;;;;;;;;;;;;;9.73;100.00;100683.56;5050275;28;20012;-67
2023/02/23 12:10:40;;;;;;;;;;;;;;;9.68;100.00;100685.06;5050212;28;19917;-69
2023/02/23 12:13:16;;;;;;;;;;;;;;;9.74;100.00;100690.50;5058787;28;19920;-70
2023/02/23 12:15:54;;;;;;;;;;;;;;;9.64;100.00;100686.63;5058053;28;20306;-69
2023/02/23 12:18:45;;;;;;;;;;;;;;;9.40;100.00;100683.84;5049859;28;19917;-67
2023/02/23 12:21:10;;;;;;;;;;;;;;;9.37;100.00;100678.53;5035928;28;19921;-72
2023/02/23 12:23:38;;;;;;;;;;;;;;;9.50;100.00;100691.16;5027085;28;19925;-69
2023/02/23 12:26:07;;;;;;;;;;;;;;;9.67;100.00;100686.78;5010711;28;19923;-70
2023/02/23 12:28:36;;;;;;;;;;;;;;;9.78;100.00;100682.09;5027668;28;19929;-69
2023/02/23 12:31:04;;;;;;;;;;;;;;;9.79;100.00;100686.41;5033393;28;19928;-68
2023/02/23 12:33:32;;;;;;;;;;;;;;;9.85;100.00;100683.22;5037320;28;19925;-70
2023/02/23 12:36:19;;;;;;;;;;;;;;;9.77;100.00;100684.59;5027238;28;19941;-70
2023/02/23 12:38:50;;;;;;;;;;;;;;;9.78;100.00;100689.84;5029937;28;20055;-68
2023/02/23 12:41:24;;;;;;;;;;;;;;;9.69;100.00;100686.84;5045209;28;19917;-71
2023/02/23 12:43:54;;;;;;;;;;;;;;;9.64;100.00;100683.19;5014292;28;19975;-74
2023/02/23 12:46:29;;;;;;;;;;;;;;;9.57;100.00;100689.78;5049839;28;19917;-69
2023/02/23 12:49:01;;;;;;;;;;;;;;;9.57;100.00;100691.44;5047424;28;19970;-71
2023/02/23 12:51:33;;;;;;;;;;;;;;;9.52;100.00;100689.56;5027104;28;19940;-71
2023/02/23 12:53:58;;;;;;;;;;;;;;;9.67;100.00;100689.34;5027024;28;19957;-71
2023/02/23 12:56:35;;;;;;;;;;;;;;;9.65;100.00;100690.97;5045320;28;19932;-70
2023/02/23 12:59:20;;;;;;;;;;;;;;;9.71;100.00;100696.41;5062565;28;19916;-72
2023/02/23 13:01:45;;;;;;;;;;;;;;;9.81;100.00;100696.81;5059021;28;20397;-70
2023/02/23 13:04:11;;;;;;;;;;;;;;;9.96;100.00;100697.47;5069902;28;19917;-72
2023/02/23 13:06:36;;;;;;;;;;;;;;;9.91;100.00;100690.38;5055510;28;20413;-71
2023/02/23 13:09:01;;;;;;;;;;;;;;;9.94;100.00;100698.22;5057741;28;19920;-70
2023/02/23 13:11:27;;;;;;;;;;;;;;;9.99;100.00;100689.88;5065671;28;19927;-70
2023/02/23 13:14:01;;;;;;;;;;;;;;;9.93;100.00;100699.03;5059727;28;20418;-71
2023/02/23 13:16:43;;;;;;;;;;;;;;;9.87;100.00;100702.25;5068523;28;19952;-68
2023/02/23 13:19:20;;;;;;;;;;;;;;;9.83;100.00;100700.31;5069493;28;20318;-70
2023/02/23 13:22:06;;;;;;;;;;;;;;;9.77;100.00;100694.91;5070174;28;19924;-71
2023/02/23 13:24:36;;;;;;;;;;;;;;;9.78;100.00;100700.16;5069541;28;19975;-71
2023/02/23 13:27:21;;;;;;;;;;;;;;;9.78;100.00;100697.56;5070029;28;19928;-73
2023/02/23 13:29:49;;;;;;;;;;;;;;;9.81;100.00;100700.25;5072440;28;20011;-72
2023/02/23 13:32:22;;;;;;;;;;;;;;;9.85;100.00;100699.56;5067621;28;19927;-73
2023/02/23 13:34:51;;;;;;;;;;;;;;;9.79;100.00;100698.44;5053409;28;20019;-70
2023/02/23 13:37:19;;;;;;;;;;;;;;;9.72;100.00;100697.31;5067541;28;19924;-70
2023/02/23 13:39:47;;;;;;;;;;;;;;;9.78;100.00;100701.81;5072213;28;20382;-72
2023/02/23 13:42:31;;;;;;;;;;;;;;;9.75;100.00;100700.00;5057544;28;19938;-69
2023/02/23 13:45:14;;;;;;;;;;;;;;;9.74;100.00;100702.50;5056015;28;19974;-71
2023/02/23 13:47:44;;;;;;;;;;;;;;;9.76;100.00;100701.75;5060851;28;20283;-69
2023/02/23 13:50:15;;;;;;;;;;;;;;;9.81;100.00;100701.97;5060054;28;19921;-69
2023/02/23 13:52:42;;;;;;;;;;;;;;;9.84;100.00;100694.34;5062053;28;19944;-70
2023/02/23 13:55:26;;;;;;;;;;;;;;;9.94;100.00;100690.47;5060798;28;19939;-69
2023/02/23 13:57:53;;;;;;;;;;;;;;;9.98;100.00;100690.69;5059003;28;20400;-69
2023/02/23 14:00:19;;;;;;;;;;;;;;;10.06;100.00;100692.72;5091954;28;19928;-69